Time;durP1;ratioP1;P1;durP2;ratioP2;P2;SDS_P1;SDS_P2;PMS_P1;PMS_P2;Temp;Humidity;BMP_temperature;BMP_pressure;BME280_temperature;BME280_humidity;BME280_pressure;Samples;Min_cycle;Max_cycle;Signal;HPM_P1;HPM_P2
2023/06/14 00:00:04;;;;;;;9.40;6.07;;;;;;;;;;5055974;28;21278;-68
2023/06/14 00:02:34;;;;;;;5.97;5.53;;;;;;;;;;5087904;28;21175;-68
2023/06/14 00:05:04;;;;;;;6.73;6.20;;;;;;;;;;5069834;28;20639;-68
2023/06/14 00:07:36;;;;;;;9.73;6.13;;;;;;;;;;5067950;28;20623;-69
2023/06/14 00:10:04;;;;;;;7.73;5.90;;;;;;;;;;5057208;28;20703;-68
2023/06/14 00:12:32;;;;;;;7.80;5.93;;;;;;;;;;5097724;28;20616;-67
2023/06/14 00:15:02;;;;;;;9.27;6.13;;;;;;;;;;5107542;28;20658;-67
2023/06/14 00:17:31;;;;;;;6.63;6.13;;;;;;;;;;5099494;28;20628;-67
2023/06/14 00:19:59;;;;;;;11.00;6.50;;;;;;;;;;5091243;28;20992;-67
2023/06/14 00:22:30;;;;;;;6.13;5.63;;;;;;;;;;5092495;28;20621;-67
2023/06/14 00:24:58;;;;;;;7.13;6.27;;;;;;;;;;5085774;28;20606;-67
2023/06/14 00:27:27;;;;;;;7.83;6.33;;;;;;;;;;5074797;28;20624;-67
2023/06/14 00:29:55;;;;;;;7.13;6.33;;;;;;;;;;5092694;28;20620;-67
2023/06/14 00:32:25;;;;;;;7.53;6.10;;;;;;;;;;5092935;28;20619;-67
2023/06/14 00:34:54;;;;;;;7.23;5.87;;;;;;;;;;5092857;28;20597;-67
2023/06/14 00:37:22;;;;;;;6.03;4.80;;;;;;;;;;5074915;28;20641;-67
2023/06/14 00:39:51;;;;;;;7.80;6.47;;;;;;;;;;5092635;28;20680;-67
2023/06/14 00:42:25;;;;;;;5.97;5.47;;;;;;;;;;5087260;28;20587;-67
2023/06/14 00:44:54;;;;;;;6.80;6.30;;;;;;;;;;5092715;28;21017;-67
2023/06/14 00:47:22;;;;;;;6.10;5.60;;;;;;;;;;5092322;28;20596;-67
2023/06/14 00:49:51;;;;;;;6.17;5.57;;;;;;;;;;5087452;28;20592;-67
2023/06/14 00:52:20;;;;;;;6.40;5.80;;;;;;;;;;5092812;28;20648;-62
2023/06/14 00:54:48;;;;;;;6.60;6.00;;;;;;;;;;5112721;28;20637;-62
2023/06/14 00:57:18;;;;;;;7.60;6.27;;;;;;;;;;5112550;28;20667;-63
2023/06/14 00:59:47;;;;;;;8.83;6.50;;;;;;;;;;5074227;28;1105200;-65
2023/06/14 01:02:16;;;;;;;11.63;6.40;;;;;;;;;;5096682;28;20191;-63
2023/06/14 01:04:45;;;;;;;5.93;5.33;;;;;;;;;;5092852;28;20603;-64
2023/06/14 01:07:15;;;;;;;7.47;6.80;;;;;;;;;;5076004;28;20672;-66
2023/06/14 01:09:49;;;;;;;7.67;5.97;;;;;;;;;;5093712;28;20653;-66
2023/06/14 01:12:22;;;;;;;6.33;5.57;;;;;;;;;;5084924;28;20625;-64
2023/06/14 01:14:51;;;;;;;5.83;5.23;;;;;;;;;;5088662;28;20605;-63
2023/06/14 01:17:21;;;;;;;6.40;5.80;;;;;;;;;;5075592;28;20643;-63
2023/06/14 01:19:53;;;;;;;6.07;5.67;;;;;;;;;;5075522;28;21201;-63
2023/06/14 01:22:21;;;;;;;6.50;5.83;;;;;;;;;;5074664;28;20571;-63
2023/06/14 01:24:55;;;;;;;6.30;5.70;;;;;;;;;;5075941;28;20600;-63
2023/06/14 01:27:28;;;;;;;6.10;4.90;;;;;;;;;;5059954;28;20691;-63
2023/06/14 01:29:57;;;;;;;5.80;5.40;;;;;;;;;;5080957;28;21213;-62
2023/06/14 01:32:26;;;;;;;6.30;5.70;;;;;;;;;;5066675;28;20622;-63
2023/06/14 01:34:54;;;;;;;7.07;5.80;;;;;;;;;;5086279;28;20681;-63
2023/06/14 01:37:23;;;;;;;7.00;6.40;;;;;;;;;;5089290;28;21186;-62
2023/06/14 01:39:53;;;;;;;6.40;5.70;;;;;;;;;;5076296;28;20667;-63
2023/06/14 01:42:21;;;;;;;5.93;5.47;;;;;;;;;;5092809;28;20604;-62
2023/06/14 01:44:50;;;;;;;8.17;5.47;;;;;;;;;;5092797;28;20636;-62
2023/06/14 01:47:18;;;;;;;7.17;6.50;;;;;;;;;;5086666;28;20782;-62
2023/06/14 01:49:48;;;;;;;6.23;5.73;;;;;;;;;;5085830;28;20630;-62
2023/06/14 01:52:16;;;;;;;6.03;5.53;;;;;;;;;;5089395;28;20723;-63
2023/06/14 01:54:45;;;;;;;6.53;5.93;;;;;;;;;;5072106;28;21035;-63
2023/06/14 01:57:15;;;;;;;7.80;6.57;;;;;;;;;;5087133;28;21213;-62
2023/06/14 01:59:48;;;;;;;8.57;7.70;;;;;;;;;;5088934;28;20649;-63
2023/06/14 02:02:16;;;;;;;9.30;6.13;;;;;;;;;;5073240;28;20604;-62
2023/06/14 02:04:47;;;;;;;7.83;6.10;;;;;;;;;;5073123;28;20655;-63
2023/06/14 02:07:15;;;;;;;6.63;6.13;;;;;;;;;;5092613;28;20670;-62
2023/06/14 02:09:43;;;;;;;7.37;6.30;;;;;;;;;;5090919;28;20644;-63
2023/06/14 02:12:12;;;;;;;6.07;5.60;;;;;;;;;;5079039;28;20992;-63
2023/06/14 02:14:41;;;;;;;7.57;6.70;;;;;;;;;;5074251;28;20977;-62
2023/06/14 02:17:10;;;;;;;6.87;6.17;;;;;;;;;;5091390;28;20621;-63
2023/06/14 02:19:38;;;;;;;7.50;6.10;;;;;;;;;;5092354;28;20657;-63
2023/06/14 02:22:06;;;;;;;8.37;7.50;;;;;;;;;;5091394;28;20617;-62
2023/06/14 02:24:36;;;;;;;6.03;5.53;;;;;;;;;;5092609;28;20621;-62
2023/06/14 02:27:05;;;;;;;10.30;6.60;;;;;;;;;;5078533;28;21220;-62
2023/06/14 02:29:33;;;;;;;7.00;6.40;;;;;;;;;;5053629;28;20961;-63
2023/06/14 02:32:07;;;;;;;8.20;6.50;;;;;;;;;;5073734;28;20972;-62
2023/06/14 02:34:36;;;;;;;8.43;6.23;;;;;;;;;;5074927;28;20560;-62
2023/06/14 02:37:04;;;;;;;9.30;7.23;;;;;;;;;;5078719;28;21294;-62
2023/06/14 02:39:32;;;;;;;6.87;6.20;;;;;;;;;;5073128;28;21009;-62
2023/06/14 02:42:01;;;;;;;6.93;5.67;;;;;;;;;;5088173;28;21169;-62
2023/06/14 02:44:29;;;;;;;9.40;6.37;;;;;;;;;;5084279;28;20593;-63
2023/06/14 02:46:58;;;;;;;7.33;6.57;;;;;;;;;;5088927;28;20622;-63
2023/06/14 02:49:28;;;;;;;7.33;6.73;;;;;;;;;;5092093;28;20629;-63
2023/06/14 02:51:57;;;;;;;8.80;6.73;;;;;;;;;;5086141;28;20625;-63
2023/06/14 02:54:25;;;;;;;6.37;5.77;;;;;;;;;;5062274;28;20632;-63
2023/06/14 02:56:54;;;;;;;13.87;6.97;;;;;;;;;;5074216;28;20603;-62
2023/06/14 02:59:25;;;;;;;6.27;5.80;;;;;;;;;;5073732;28;20631;-62
2023/06/14 03:01:54;;;;;;;6.67;5.93;;;;;;;;;;5058829;28;20600;-63
2023/06/14 03:04:22;;;;;;;5.83;5.33;;;;;;;;;;5085472;28;20686;-62
2023/06/14 03:06:53;;;;;;;6.30;5.80;;;;;;;;;;5065661;28;20648;-62
2023/06/14 03:09:23;;;;;;;8.77;6.30;;;;;;;;;;5073215;28;20603;-62
2023/06/14 03:11:51;;;;;;;12.93;6.23;;;;;;;;;;5068555;28;21175;-63
2023/06/14 03:14:21;;;;;;;6.20;5.70;;;;;;;;;;5074224;28;20625;-67
2023/06/14 03:16:50;;;;;;;8.57;6.40;;;;;;;;;;5072923;28;20600;-66
2023/06/14 03:19:19;;;;;;;7.33;6.73;;;;;;;;;;5072666;28;20602;-67
2023/06/14 03:21:47;;;;;;;7.20;6.10;;;;;;;;;;5089804;28;20985;-67
2023/06/14 03:24:17;;;;;;;6.77;6.03;;;;;;;;;;5091293;28;20626;-68
2023/06/14 03:26:45;;;;;;;7.60;6.90;;;;;;;;;;5072011;28;21000;-68
2023/06/14 03:29:13;;;;;;;6.73;6.17;;;;;;;;;;5073191;28;21086;-65
2023/06/14 03:31:57;;;;;;;7.07;5.83;;;;;;;;;;5091509;28;20644;-68
2023/06/14 03:34:26;;;;;;;8.90;6.43;;;;;;;;;;5091265;28;21177;-67
2023/06/14 03:36:54;;;;;;;6.10;5.60;;;;;;;;;;5071905;28;20688;-67
2023/06/14 03:39:24;;;;;;;8.00;6.63;;;;;;;;;;5079387;28;20630;-68
2023/06/14 03:41:53;;;;;;;8.30;6.53;;;;;;;;;;5060898;28;21059;-67
2023/06/14 03:44:21;;;;;;;7.03;6.33;;;;;;;;;;5085271;28;20625;-68
2023/06/14 03:46:49;;;;;;;13.53;6.87;;;;;;;;;;5072154;28;20592;-67
2023/06/14 03:49:18;;;;;;;8.93;7.63;;;;;;;;;;5057453;28;21175;-68
2023/06/14 03:51:51;;;;;;;7.93;6.77;;;;;;;;;;5067740;28;20625;-67
2023/06/14 03:54:21;;;;;;;7.33;6.40;;;;;;;;;;5072987;28;20607;-67
2023/06/14 03:56:52;;;;;;;6.83;6.27;;;;;;;;;;5069574;28;21029;-67
2023/06/14 03:59:21;;;;;;;7.53;6.80;;;;;;;;;;5090322;28;20943;-68
2023/06/14 04:01:50;;;;;;;7.70;6.00;;;;;;;;;;5066279;28;20649;-68
2023/06/14 04:04:18;;;;;;;7.83;6.83;;;;;;;;;;5071438;28;20621;-67
2023/06/14 04:06:48;;;;;;;7.83;7.10;;;;;;;;;;5060004;28;21013;-67
2023/06/14 04:09:18;;;;;;;7.00;6.37;;;;;;;;;;5085725;28;20621;-67
2023/06/14 04:11:47;;;;;;;7.37;6.70;;;;;;;;;;5061828;28;20663;-68
2023/06/14 04:14:16;;;;;;;7.23;6.60;;;;;;;;;;5089627;28;20590;-67
2023/06/14 04:16:44;;;;;;;7.93;6.30;;;;;;;;;;5072547;28;21000;-67
2023/06/14 04:19:13;;;;;;;7.83;6.93;;;;;;;;;;5051250;28;20618;-67
2023/06/14 04:21:41;;;;;;;8.07;5.97;;;;;;;;;;5059311;28;21229;-68
2023/06/14 04:24:12;;;;;;;7.33;6.63;;;;;;;;;;5083012;28;21207;-67
2023/06/14 04:26:44;;;;;;;8.07;6.33;;;;;;;;;;5066788;28;20580;-68
2023/06/14 04:29:14;;;;;;;9.57;6.73;;;;;;;;;;5056245;28;20609;-70
2023/06/14 04:31:45;;;;;;;7.00;6.40;;;;;;;;;;5066183;28;21088;-65
2023/06/14 04:34:16;;;;;;;6.83;6.23;;;;;;;;;;5087876;28;20692;-67
2023/06/14 04:36:49;;;;;;;6.50;6.00;;;;;;;;;;5090078;28;20695;-62
2023/06/14 04:39:18;;;;;;;11.83;6.53;;;;;;;;;;5091168;28;21228;-62
2023/06/14 04:41:47;;;;;;;6.93;6.13;;;;;;;;;;5091176;28;20731;-62
2023/06/14 04:44:16;;;;;;;8.60;6.60;;;;;;;;;;5090572;28;20617;-63
2023/06/14 04:46:49;;;;;;;26.00;7.43;;;;;;;;;;5090143;28;20626;-63
2023/06/14 04:49:24;;;;;;;10.80;7.03;;;;;;;;;;5090933;28;20641;-63
2023/06/14 04:51:59;;;;;;;11.20;6.10;;;;;;;;;;5092586;28;20621;-62
2023/06/14 04:54:31;;;;;;;23.10;7.00;;;;;;;;;;5087658;28;20656;-62
2023/06/14 04:56:59;;;;;;;10.73;7.07;;;;;;;;;;5094828;28;20617;-61
2023/06/14 04:59:33;;;;;;;6.83;6.30;;;;;;;;;;5082913;28;20689;-63
2023/06/14 05:02:03;;;;;;;6.70;6.10;;;;;;;;;;5094387;28;20689;-63
2023/06/14 05:04:32;;;;;;;7.30;6.23;;;;;;;;;;5088661;28;20707;-62
2023/06/14 05:07:02;;;;;;;9.07;6.43;;;;;;;;;;5112236;28;20703;-62
2023/06/14 05:09:30;;;;;;;6.60;6.00;;;;;;;;;;5098344;28;20672;-64
2023/06/14 05:12:00;;;;;;;6.83;5.83;;;;;;;;;;5079329;28;20698;-63
2023/06/14 05:14:28;;;;;;;7.03;6.43;;;;;;;;;;5088646;28;20919;-64
2023/06/14 05:16:58;;;;;;;7.43;6.23;;;;;;;;;;5045795;28;21184;-63
2023/06/14 05:19:27;;;;;;;7.03;6.27;;;;;;;;;;5090990;28;20617;-63
2023/06/14 05:21:55;;;;;;;11.33;6.67;;;;;;;;;;5089521;28;20654;-63
2023/06/14 05:24:25;;;;;;;7.03;6.43;;;;;;;;;;5089004;28;20629;-65
2023/06/14 05:26:53;;;;;;;6.60;6.20;;;;;;;;;;5069465;28;20628;-62
2023/06/14 05:29:21;;;;;;;7.20;6.50;;;;;;;;;;5093680;28;20974;-62
2023/06/14 05:31:50;;;;;;;13.00;6.70;;;;;;;;;;5093188;28;21018;-63
2023/06/14 05:34:18;;;;;;;8.47;6.70;;;;;;;;;;5092929;28;21167;-63
2023/06/14 05:36:47;;;;;;;7.07;6.47;;;;;;;;;;5110958;28;20976;-63
2023/06/14 05:39:16;;;;;;;10.30;6.50;;;;;;;;;;5095368;28;20625;-63
2023/06/14 05:41:45;;;;;;;10.33;7.00;;;;;;;;;;5081370;28;20665;-63
2023/06/14 05:44:13;;;;;;;7.43;6.45;;;;;;;;;;5101005;28;20789;-65
2023/06/14 05:46:41;;;;;;;12.03;7.90;;;;;;;;;;5105390;28;20199;-64
2023/06/14 05:49:09;;;;;;;11.13;7.90;;;;;;;;;;5084187;28;20712;-66
2023/06/14 05:51:37;;;;;;;7.70;6.90;;;;;;;;;;5110626;28;21045;-66
2023/06/14 05:54:07;;;;;;;8.87;6.90;;;;;;;;;;5111775;28;20628;-66
2023/06/14 05:56:35;;;;;;;8.10;6.20;;;;;;;;;;5108359;28;20645;-67
2023/06/14 05:59:04;;;;;;;6.67;6.03;;;;;;;;;;5115849;28;20986;-66
2023/06/14 06:01:33;;;;;;;9.07;7.00;;;;;;;;;;5117255;28;20695;-66
2023/06/14 06:04:01;;;;;;;6.83;6.10;;;;;;;;;;5115394;28;20640;-66
2023/06/14 06:06:30;;;;;;;14.37;7.40;;;;;;;;;;5116122;28;20633;-65
2023/06/14 06:08:58;;;;;;;7.27;6.27;;;;;;;;;;5115793;28;20675;-65
2023/06/14 06:11:27;;;;;;;6.60;6.03;;;;;;;;;;5117318;22;20685;-65
2023/06/14 06:13:56;;;;;;;12.43;6.47;;;;;;;;;;5090349;28;20677;-65
2023/06/14 06:16:24;;;;;;;7.80;6.50;;;;;;;;;;5079820;28;20631;-66
2023/06/14 06:18:52;;;;;;;12.83;7.07;;;;;;;;;;5086781;28;20638;-66
2023/06/14 06:21:20;;;;;;;9.90;6.33;;;;;;;;;;5086319;28;20674;-66
2023/06/14 06:23:49;;;;;;;8.13;6.37;;;;;;;;;;5067235;28;20615;-66
2023/06/14 06:26:17;;;;;;;6.70;6.03;;;;;;;;;;5086306;28;20662;-67
2023/06/14 06:28:46;;;;;;;9.30;6.00;;;;;;;;;;5081819;28;20725;-67
2023/06/14 06:31:15;;;;;;;8.33;6.90;;;;;;;;;;5077411;28;20646;-67
2023/06/14 06:33:43;;;;;;;6.93;6.43;;;;;;;;;;5064871;28;20706;-68
2023/06/14 06:36:11;;;;;;;7.17;6.50;;;;;;;;;;5081339;28;20685;-68
2023/06/14 06:38:40;;;;;;;9.83;6.80;;;;;;;;;;5075127;28;20698;-66
2023/06/14 06:41:08;;;;;;;6.77;6.10;;;;;;;;;;5073048;28;20710;-65
2023/06/14 06:43:37;;;;;;;7.83;7.20;;;;;;;;;;5071637;28;20706;-66
2023/06/14 06:46:06;;;;;;;7.90;6.57;;;;;;;;;;5061932;28;20637;-68
2023/06/14 06:48:34;;;;;;;7.90;7.10;;;;;;;;;;5068116;28;20633;-68
2023/06/14 06:51:03;;;;;;;7.50;6.80;;;;;;;;;;5060960;28;20627;-67
2023/06/14 06:53:31;;;;;;;13.30;6.57;;;;;;;;;;5072997;28;20694;-66
2023/06/14 06:55:59;;;;;;;8.10;7.20;;;;;;;;;;5081769;28;20647;-68
2023/06/14 06:58:27;;;;;;;6.90;6.40;;;;;;;;;;5068531;28;20718;-66
2023/06/14 07:00:55;;;;;;;7.83;6.90;;;;;;;;;;5072133;28;20698;-66
2023/06/14 07:03:25;;;;;;;7.63;7.00;;;;;;;;;;5083117;28;20718;-65
2023/06/14 07:05:53;;;;;;;7.10;6.50;;;;;;;;;;5087760;28;20703;-65
2023/06/14 07:08:21;;;;;;;7.97;7.27;;;;;;;;;;5078075;28;20720;-66
2023/06/14 07:10:50;;;;;;;9.93;7.10;;;;;;;;;;5071329;28;21088;-65
2023/06/14 07:13:19;;;;;;;7.27;6.73;;;;;;;;;;5078134;28;20709;-66
2023/06/14 07:15:47;;;;;;;8.00;6.80;;;;;;;;;;5085125;28;20677;-66
2023/06/14 07:18:15;;;;;;;8.53;6.97;;;;;;;;;;5091952;28;20748;-66
2023/06/14 07:20:45;;;;;;;7.20;6.57;;;;;;;;;;5092010;28;20665;-65
2023/06/14 07:23:13;;;;;;;11.73;7.20;;;;;;;;;;5098802;28;20747;-65
2023/06/14 07:25:41;;;;;;;8.97;6.80;;;;;;;;;;5096313;28;20632;-65
2023/06/14 07:28:09;;;;;;;10.13;7.07;;;;;;;;;;5091723;28;20646;-65
2023/06/14 07:30:37;;;;;;;6.80;6.30;;;;;;;;;;5094866;28;20657;-66
2023/06/14 07:33:06;;;;;;;7.37;6.00;;;;;;;;;;5072619;28;21248;-66
2023/06/14 07:35:34;;;;;;;7.97;6.60;;;;;;;;;;5082533;28;20982;-66
2023/06/14 07:38:04;;;;;;;7.30;6.67;;;;;;;;;;5074733;28;20714;-66
2023/06/14 07:40:32;;;;;;;11.93;6.60;;;;;;;;;;5095356;28;20725;-66
2023/06/14 07:43:01;;;;;;;7.40;6.80;;;;;;;;;;5072298;28;20676;-67
2023/06/14 07:45:29;;;;;;;7.33;6.73;;;;;;;;;;5079390;28;20617;-67
2023/06/14 07:47:57;;;;;;;12.97;6.30;;;;;;;;;;5078784;28;20638;-67
2023/06/14 07:50:26;;;;;;;7.80;7.00;;;;;;;;;;5072414;28;20629;-67
2023/06/14 07:52:54;;;;;;;8.43;7.33;;;;;;;;;;5083397;28;20618;-65
2023/06/14 07:55:25;;;;;;;9.47;7.20;;;;;;;;;;5082565;28;20684;-67
2023/06/14 07:57:53;;;;;;;7.83;7.17;;;;;;;;;;5064494;28;20663;-66
2023/06/14 08:00:22;;;;;;;7.27;6.60;;;;;;;;;;5090989;28;20673;-67
2023/06/14 08:02:50;;;;;;;9.13;7.00;;;;;;;;;;5113146;22;20724;-89
2023/06/14 08:05:18;;;;;;;18.93;8.13;;;;;;;;;;5086939;28;20692;-85
2023/06/14 08:07:47;;;;;;;8.83;7.07;;;;;;;;;;5087531;28;20650;-86
2023/06/14 08:10:15;;;;;;;9.00;8.13;;;;;;;;;;5071866;28;20713;-84
2023/06/14 08:12:45;;;;;;;7.30;6.33;;;;;;;;;;5081822;28;20642;-84
2023/06/14 08:15:13;;;;;;;8.17;7.40;;;;;;;;;;5095003;28;20637;-86
2023/06/14 08:17:41;;;;;;;7.37;6.77;;;;;;;;;;5090203;28;20634;-89
2023/06/14 08:20:10;;;;;;;11.80;7.60;;;;;;;;;;5158392;22;20706;-66
2023/06/14 08:22:40;;;;;;;9.63;8.83;;;;;;;;;;5091234;28;20689;-66
2023/06/14 08:25:09;;;;;;;10.33;7.00;;;;;;;;;;5092223;28;20638;-67
2023/06/14 08:27:37;;;;;;;9.40;7.17;;;;;;;;;;5086958;28;20633;-67
2023/06/14 08:30:08;;;;;;;7.40;6.80;;;;;;;;;;5080738;28;20626;-67
2023/06/14 08:32:36;;;;;;;7.63;7.03;;;;;;;;;;5098651;28;20633;-67
2023/06/14 08:35:06;;;;;;;9.97;6.97;;;;;;;;;;5170013;22;20672;-67
2023/06/14 08:37:34;;;;;;;7.87;7.17;;;;;;;;;;5058077;28;20643;-67
2023/06/14 08:40:04;;;;;;;9.03;7.07;;;;;;;;;;5052230;28;20629;-67
2023/06/14 08:42:34;;;;;;;8.90;7.07;;;;;;;;;;5037395;28;21201;-64
2023/06/14 08:45:02;;;;;;;7.73;6.73;;;;;;;;;;5040992;28;20634;-68
2023/06/14 08:47:36;;;;;;;10.37;6.80;;;;;;;;;;5031543;28;21289;-67
2023/06/14 08:50:06;;;;;;;6.73;6.23;;;;;;;;;;5035315;28;20607;-66
2023/06/14 08:52:40;;;;;;;7.57;6.97;;;;;;;;;;5037833;28;20635;-66
2023/06/14 08:55:09;;;;;;;17.83;7.13;;;;;;;;;;5020808;28;20604;-67
2023/06/14 08:57:38;;;;;;;12.70;6.60;;;;;;;;;;5048005;28;20623;-66
2023/06/14 09:00:11;;;;;;;10.73;9.67;;;;;;;;;;5023260;28;20627;-68
2023/06/14 09:02:43;;;;;;;8.50;7.60;;;;;;;;;;5034044;28;20658;-66
2023/06/14 09:05:13;;;;;;;8.10;7.40;;;;;;;;;;5040523;28;21163;-66
2023/06/14 09:07:42;;;;;;;16.13;7.30;;;;;;;;;;5048719;28;20681;-65
2023/06/14 09:10:12;;;;;;;7.77;7.07;;;;;;;;;;5035579;28;21009;-65
2023/06/14 09:12:41;;;;;;;13.30;6.90;;;;;;;;;;5026840;28;20620;-64
2023/06/14 09:15:10;;;;;;;8.67;6.80;;;;;;;;;;5040873;28;20637;-66
2023/06/14 09:17:38;;;;;;;7.07;6.40;;;;;;;;;;5044214;28;21197;-65
2023/06/14 09:20:10;;;;;;;9.57;6.90;;;;;;;;;;5034788;28;20642;-65
2023/06/14 09:22:39;;;;;;;14.23;6.40;;;;;;;;;;5039073;28;20700;-65
2023/06/14 09:25:07;;;;;;;6.03;5.50;;;;;;;;;;5032508;28;21005;-67
2023/06/14 09:27:39;;;;;;;6.57;6.10;;;;;;;;;;5016694;28;20624;-66
2023/06/14 09:30:09;;;;;;;12.83;7.83;;;;;;;;;;5033349;28;20986;-67
2023/06/14 09:32:39;;;;;;;7.73;6.20;;;;;;;;;;5024390;28;21201;-64
2023/06/14 09:35:09;;;;;;;6.30;5.73;;;;;;;;;;5033610;28;20655;-66
2023/06/14 09:37:38;;;;;;;7.43;6.73;;;;;;;;;;5027324;28;20612;-66
2023/06/14 09:40:07;;;;;;;11.97;6.50;;;;;;;;;;5033818;28;20631;-64
2023/06/14 09:42:36;;;;;;;7.57;6.63;;;;;;;;;;5030384;28;20627;-64
2023/06/14 09:45:05;;;;;;;7.37;6.77;;;;;;;;;;5030737;28;20638;-63
2023/06/14 09:47:33;;;;;;;10.83;7.50;;;;;;;;;;5044425;28;21119;-63
2023/06/14 09:50:02;;;;;;;10.30;6.67;;;;;;;;;;5046376;28;20624;-64
2023/06/14 09:52:31;;;;;;;10.20;6.80;;;;;;;;;;5032023;28;20627;-63
2023/06/14 09:55:00;;;;;;;7.07;6.50;;;;;;;;;;5035295;28;20617;-65
2023/06/14 09:57:33;;;;;;;9.10;6.50;;;;;;;;;;5042498;28;20624;-63
2023/06/14 10:00:05;;;;;;;6.83;6.17;;;;;;;;;;5035167;28;21020;-64
2023/06/14 10:02:47;;;;;;;8.90;6.30;;;;;;;;;;5039325;28;20718;-64
2023/06/14 10:05:17;;;;;;;7.27;6.57;;;;;;;;;;5030254;28;20649;-63
2023/06/14 10:07:57;;;;;;;8.00;6.53;;;;;;;;;;5030994;28;20999;-64
2023/06/14 10:10:25;;;;;;;7.67;6.90;;;;;;;;;;5031479;28;20631;-64
2023/06/14 10:12:54;;;;;;;8.47;6.00;;;;;;;;;;5045191;28;20655;-64
2023/06/14 10:15:25;;;;;;;12.60;6.53;;;;;;;;;;5034964;28;20616;-63
2023/06/14 10:17:56;;;;;;;5.93;5.53;;;;;;;;;;5013129;28;20578;-63
2023/06/14 10:20:29;;;;;;;7.10;6.40;;;;;;;;;;5035189;28;20608;-64
2023/06/14 10:23:01;;;;;;;12.93;6.60;;;;;;;;;;5034271;28;20644;-64
2023/06/14 10:25:30;;;;;;;8.60;7.43;;;;;;;;;;5051088;28;20617;-64
2023/06/14 10:28:05;;;;;;;7.80;7.03;;;;;;;;;;5045658;28;20626;-64
2023/06/14 10:30:33;;;;;;;12.70;6.80;;;;;;;;;;5048311;28;21190;-64
2023/06/14 10:33:05;;;;;;;7.10;6.60;;;;;;;;;;5036315;28;20979;-64
2023/06/14 10:35:34;;;;;;;11.43;6.90;;;;;;;;;;5032926;28;20632;-64
2023/06/14 10:38:10;;;;;;;6.70;6.10;;;;;;;;;;5031576;28;20626;-65
2023/06/14 10:40:39;;;;;;;6.53;5.83;;;;;;;;;;5031292;28;20597;-62
2023/06/14 10:43:23;;;;;;;6.07;5.63;;;;;;;;;;5034148;28;20658;-63
2023/06/14 10:46:10;;;;;;;5.97;5.57;;;;;;;;;;5045570;28;20608;-62
2023/06/14 10:48:42;;;;;;;5.73;5.43;;;;;;;;;;5034880;28;20636;-63
2023/06/14 10:51:19;;;;;;;7.10;5.50;;;;;;;;;;5031434;28;21122;-63
2023/06/14 10:53:50;;;;;;;5.47;4.97;;;;;;;;;;5033358;28;20679;-61
2023/06/14 10:56:30;;;;;;;5.80;5.47;;;;;;;;;;5049284;28;20676;-63
2023/06/14 10:58:59;;;;;;;6.20;4.87;;;;;;;;;;5030937;28;20623;-63
2023/06/14 11:01:34;;;;;;;5.93;5.40;;;;;;;;;;5012013;28;20617;-63
2023/06/14 11:04:09;;;;;;;5.00;4.70;;;;;;;;;;5022939;28;20630;-64
2023/06/14 11:06:47;;;;;;;6.70;6.27;;;;;;;;;;5030788;28;20613;-62
2023/06/14 11:09:27;;;;;;;7.43;4.83;;;;;;;;;;5034678;28;20600;-62
2023/06/14 11:11:55;;;;;;;5.70;5.17;;;;;;;;;;5036620;28;20962;-63
2023/06/14 11:14:26;;;;;;;5.47;5.00;;;;;;;;;;5042039;28;20610;-62
2023/06/14 11:16:54;;;;;;;8.60;4.90;;;;;;;;;;5034653;28;20997;-62
2023/06/14 11:19:23;;;;;;;6.93;4.90;;;;;;;;;;5031594;28;21231;-62
2023/06/14 11:21:52;;;;;;;5.60;4.97;;;;;;;;;;5039329;28;21173;-63
2023/06/14 11:24:21;;;;;;;9.00;5.33;;;;;;;;;;5037916;28;20659;-62
2023/06/14 11:26:50;;;;;;;13.10;4.80;;;;;;;;;;5039372;28;20627;-63
2023/06/14 11:29:21;;;;;;;5.40;5.00;;;;;;;;;;5039908;28;20630;-64
2023/06/14 11:31:50;;;;;;;8.43;5.37;;;;;;;;;;5040074;28;20608;-63
2023/06/14 11:34:19;;;;;;;6.10;5.50;;;;;;;;;;5039866;28;20647;-63
2023/06/14 11:36:48;;;;;;;5.20;4.90;;;;;;;;;;5039676;28;20607;-63
2023/06/14 11:39:16;;;;;;;6.33;5.40;;;;;;;;;;5036964;28;21048;-62
2023/06/14 11:41:45;;;;;;;5.13;4.73;;;;;;;;;;5035577;28;20619;-62
2023/06/14 11:44:14;;;;;;;5.00;4.70;;;;;;;;;;5046590;28;20659;-62
2023/06/14 11:46:43;;;;;;;5.40;5.10;;;;;;;;;;5038867;28;20633;-62
2023/06/14 11:49:11;;;;;;;7.93;5.73;;;;;;;;;;5048258;28;20635;-62
2023/06/14 11:51:39;;;;;;;9.90;5.27;;;;;;;;;;5035616;28;20624;-63
2023/06/14 11:54:09;;;;;;;8.07;5.60;;;;;;;;;;5033758;28;20641;-62
2023/06/14 11:56:38;;;;;;;5.33;4.90;;;;;;;;;;5040319;28;21185;-63
2023/06/14 11:59:06;;;;;;;5.47;4.97;;;;;;;;;;5046757;28;20627;-62
2023/06/14 12:01:39;;;;;;;8.77;7.83;;;;;;;;;;5049520;28;21148;-63
2023/06/14 12:04:07;;;;;;;5.60;5.20;;;;;;;;;;5035607;28;20658;-63
2023/06/14 12:06:39;;;;;;;5.60;5.20;;;;;;;;;;5054102;28;20610;-63
2023/06/14 12:09:13;;;;;;;6.30;5.80;;;;;;;;;;5052380;28;20613;-63
2023/06/14 12:11:41;;;;;;;7.60;5.30;;;;;;;;;;5018117;28;20981;-63
2023/06/14 12:14:10;;;;;;;6.20;5.10;;;;;;;;;;5031423;28;20627;-63
2023/06/14 12:16:41;;;;;;;9.50;5.20;;;;;;;;;;5036902;28;20965;-63
2023/06/14 12:19:11;;;;;;;5.77;5.13;;;;;;;;;;5034586;28;20612;-64
2023/06/14 12:21:40;;;;;;;5.27;4.87;;;;;;;;;;5031242;28;20742;-63
2023/06/14 12:24:08;;;;;;;6.00;5.50;;;;;;;;;;5030469;28;21023;-63
2023/06/14 12:26:40;;;;;;;5.70;5.30;;;;;;;;;;5026848;28;20643;-63
2023/06/14 12:29:09;;;;;;;15.63;4.93;;;;;;;;;;5030767;28;20616;-62
2023/06/14 12:31:37;;;;;;;6.30;5.70;;;;;;;;;;5031699;28;20634;-63
2023/06/14 12:34:07;;;;;;;4.87;4.50;;;;;;;;;;5037684;28;20679;-63
2023/06/14 12:36:40;;;;;;;11.70;5.70;;;;;;;;;;5041546;28;20612;-64
2023/06/14 12:39:09;;;;;;;5.90;5.43;;;;;;;;;;5038356;28;20618;-64
2023/06/14 12:41:37;;;;;;;5.17;4.87;;;;;;;;;;5051813;28;20744;-64
2023/06/14 12:44:05;;;;;;;6.83;5.30;;;;;;;;;;5054117;28;20651;-63
2023/06/14 12:46:34;;;;;;;5.83;5.43;;;;;;;;;;5041819;28;21178;-64
2023/06/14 12:49:03;;;;;;;4.90;4.60;;;;;;;;;;5036819;28;20677;-61
2023/06/14 12:51:32;;;;;;;5.90;4.77;;;;;;;;;;5039633;28;20680;-61
2023/06/14 12:54:00;;;;;;;6.73;5.03;;;;;;;;;;5036720;28;20624;-62
2023/06/14 12:56:29;;;;;;;6.37;5.97;;;;;;;;;;5029728;28;20628;-63
2023/06/14 12:58:57;;;;;;;5.83;5.00;;;;;;;;;;5021674;28;20641;-63
2023/06/14 13:01:26;;;;;;;5.90;5.43;;;;;;;;;;5031783;28;21262;-63
2023/06/14 13:03:54;;;;;;;5.57;5.17;;;;;;;;;;5038122;28;21378;-63
2023/06/14 13:06:23;;;;;;;5.60;5.20;;;;;;;;;;5043531;28;20627;-63
2023/06/14 13:08:54;;;;;;;6.50;5.20;;;;;;;;;;5021111;28;20658;-63
2023/06/14 13:11:22;;;;;;;5.83;5.43;;;;;;;;;;5035277;28;20663;-63
2023/06/14 13:13:51;;;;;;;5.87;5.30;;;;;;;;;;5027646;28;21156;-63
2023/06/14 13:16:19;;;;;;;5.87;5.13;;;;;;;;;;5038358;28;20711;-63
2023/06/14 13:18:47;;;;;;;8.13;5.33;;;;;;;;;;5015665;28;20623;-64
2023/06/14 13:21:15;;;;;;;5.80;5.30;;;;;;;;;;5019133;28;20628;-63
2023/06/14 13:23:44;;;;;;;6.07;5.40;;;;;;;;;;5044154;28;20627;-66
2023/06/14 13:26:13;;;;;;;5.70;5.40;;;;;;;;;;5027509;28;20674;-63
2023/06/14 13:28:42;;;;;;;5.07;4.77;;;;;;;;;;5023069;28;20632;-63
2023/06/14 13:31:10;;;;;;;5.10;4.80;;;;;;;;;;5024388;28;20656;-64
2023/06/14 13:33:38;;;;;;;5.30;4.90;;;;;;;;;;5038987;28;21223;-63
2023/06/14 13:36:06;;;;;;;5.23;4.97;;;;;;;;;;5032617;28;20656;-63
2023/06/14 13:38:34;;;;;;;5.40;5.10;;;;;;;;;;5039525;28;20637;-64
2023/06/14 13:41:03;;;;;;;6.00;5.50;;;;;;;;;;5041130;28;20627;-63
2023/06/14 13:43:32;;;;;;;9.77;5.20;;;;;;;;;;5034788;28;20996;-64
2023/06/14 13:46:00;;;;;;;5.43;5.03;;;;;;;;;;5030852;28;20660;-62
2023/06/14 13:48:28;;;;;;;5.40;5.10;;;;;;;;;;5037016;28;20628;-64
2023/06/14 13:50:57;;;;;;;6.70;6.07;;;;;;;;;;5044668;28;20634;-65
2023/06/14 13:53:26;;;;;;;8.13;5.20;;;;;;;;;;5034008;28;20705;-67
2023/06/14 13:55:54;;;;;;;5.50;5.10;;;;;;;;;;5042571;28;21211;-69
2023/06/14 13:58:23;;;;;;;8.47;5.20;;;;;;;;;;5045453;28;20622;-66
2023/06/14 14:00:52;;;;;;;6.83;5.63;;;;;;;;;;5033700;28;21003;-64
2023/06/14 14:03:21;;;;;;;15.10;6.00;;;;;;;;;;5032394;28;20608;-63
2023/06/14 14:05:49;;;;;;;8.53;4.93;;;;;;;;;;5036833;28;20664;-64
2023/06/14 14:08:17;;;;;;;4.93;4.73;;;;;;;;;;5037990;28;20695;-64
2023/06/14 14:10:46;;;;;;;6.87;5.17;;;;;;;;;;5039420;28;20694;-61
2023/06/14 14:13:17;;;;;;;6.37;5.20;;;;;;;;;;5031746;28;20624;-62
2023/06/14 14:15:45;;;;;;;6.00;5.60;;;;;;;;;;5032290;28;20604;-62
2023/06/14 14:18:15;;;;;;;6.50;5.57;;;;;;;;;;5020646;28;20674;-65
2023/06/14 14:20:43;;;;;;;6.20;5.20;;;;;;;;;;5030467;28;21186;-63
2023/06/14 14:23:11;;;;;;;5.30;5.00;;;;;;;;;;5031226;28;21157;-62
2023/06/14 14:25:39;;;;;;;5.80;5.40;;;;;;;;;;5030255;28;21013;-62
2023/06/14 14:28:08;;;;;;;9.43;6.10;;;;;;;;;;5030607;28;20628;-62
2023/06/14 14:30:39;;;;;;;6.00;5.60;;;;;;;;;;5041718;28;20635;-61
2023/06/14 14:33:07;;;;;;;5.53;5.23;;;;;;;;;;5031001;28;20610;-61
2023/06/14 14:35:37;;;;;;;11.23;5.20;;;;;;;;;;5021529;28;20674;-62
2023/06/14 14:38:06;;;;;;;6.43;5.03;;;;;;;;;;5033670;28;20635;-62
2023/06/14 14:40:34;;;;;;;5.73;4.93;;;;;;;;;;5024837;28;21006;-62
2023/06/14 14:43:02;;;;;;;5.60;5.10;;;;;;;;;;5016908;28;20624;-62
2023/06/14 14:45:31;;;;;;;5.13;4.80;;;;;;;;;;5023383;28;20660;-62
2023/06/14 14:47:59;;;;;;;6.03;5.30;;;;;;;;;;5019218;28;20628;-61
2023/06/14 14:50:27;;;;;;;5.53;5.13;;;;;;;;;;5030949;28;20631;-61
2023/06/14 14:52:57;;;;;;;5.77;5.43;;;;;;;;;;5027685;28;20628;-62